Time;durP1;ratioP1;P1;durP2;ratioP2;P2;SDS_P1;SDS_P2;PMS_P1;PMS_P2;Temp;Humidity;BMP_temperature;BMP_pressure;BME280_temperature;BME280_humidity;BME280_pressure;Samples;Min_cycle;Max_cycle;Signal;HPM_P1;HPM_P2
2023/09/05 00:00:06;;;;;;;;;;;22.40;55.40;;;;;;5117806;27;19969;-59
2023/09/05 00:02:33;;;;;;;;;;;22.40;55.30;;;;;;5090258;28;19928;-60
2023/09/05 00:05:01;;;;;;;;;;;22.40;55.30;;;;;;5115876;27;19924;-60
2023/09/05 00:07:29;;;;;;;;;;;22.40;55.30;;;;;;5104224;28;19931;-58
2023/09/05 00:09:59;;;;;;;;;;;22.40;55.30;;;;;;5102803;28;19928;-59
2023/09/05 00:12:27;;;;;;;;;;;22.50;55.40;;;;;;5104648;28;19923;-59
2023/09/05 00:14:54;;;;;;;;;;;22.40;55.30;;;;;;5102277;28;20009;-58
2023/09/05 00:17:21;;;;;;;;;;;22.40;55.30;;;;;;5101445;28;19931;-59
2023/09/05 00:19:47;;;;;;;;;;;22.40;55.30;;;;;;5087676;28;19924;-59
2023/09/05 00:22:15;;;;;;;;;;;22.50;55.40;;;;;;5097634;28;19934;-58
2023/09/05 00:24:44;;;;;;;;;;;22.40;55.30;;;;;;5127880;27;19924;-59
2023/09/05 00:27:11;;;;;;;;;;;22.50;55.40;;;;;;5106905;28;20017;-59
2023/09/05 00:29:38;;;;;;;;;;;22.40;55.30;;;;;;5102295;28;19928;-60
2023/09/05 00:32:09;;;;;;;;;;;22.50;55.40;;;;;;5106712;28;19943;-61
2023/09/05 00:34:36;;;;;;;;;;;22.40;55.30;;;;;;5102424;28;19930;-60
2023/09/05 00:37:03;;;;;;;;;;;22.50;55.40;;;;;;5094862;28;19924;-60
2023/09/05 00:39:31;;;;;;;;;;;22.40;55.30;;;;;;5107533;28;19959;-59
2023/09/05 00:41:58;;;;;;;;;;;22.40;55.30;;;;;;5101030;28;19924;-61
2023/09/05 00:44:25;;;;;;;;;;;22.50;55.40;;;;;;5100419;28;19931;-59
2023/09/05 00:46:54;;;;;;;;;;;22.40;55.30;;;;;;5103697;28;19936;-61
2023/09/05 00:49:22;;;;;;;;;;;22.40;55.30;;;;;;5094308;28;19924;-59
2023/09/05 00:51:50;;;;;;;;;;;22.40;55.30;;;;;;5103175;28;19923;-58
2023/09/05 00:54:17;;;;;;;;;;;22.40;55.30;;;;;;5089192;28;19931;-60
2023/09/05 00:56:45;;;;;;;;;;;22.40;55.30;;;;;;5106418;28;19924;-61
2023/09/05 00:59:12;;;;;;;;;;;22.40;55.30;;;;;;5094986;28;19927;-60
2023/09/05 01:01:38;;;;;;;;;;;22.40;55.30;;;;;;5094734;28;19928;-59
2023/09/05 01:04:05;;;;;;;;;;;22.50;55.40;;;;;;5113111;28;19928;-62
2023/09/05 01:06:38;;;;;;;;;;;22.40;55.30;;;;;;5130675;27;19972;-58
2023/09/05 01:09:08;;;;;;;;;;;22.50;55.40;;;;;;5097055;28;19958;-61
2023/09/05 01:11:35;;;;;;;;;;;22.50;56.00;;;;;;5124502;27;19932;-60
2023/09/05 01:14:03;;;;;;;;;;;22.50;55.40;;;;;;5121488;27;19935;-61
2023/09/05 01:16:30;;;;;;;;;;;22.40;55.60;;;;;;5101033;28;19973;-61
2023/09/05 01:18:57;;;;;;;;;;;22.50;55.40;;;;;;5110748;28;19924;-62
2023/09/05 01:21:25;;;;;;;;;;;22.50;55.40;;;;;;5094096;28;19973;-58
2023/09/05 01:23:55;;;;;;;;;;;22.50;55.40;;;;;;5103542;28;20093;-58
2023/09/05 01:26:23;;;;;;;;;;;22.40;55.30;;;;;;5105724;28;19927;-59
2023/09/05 01:28:52;;;;;;;;;;;22.40;55.40;;;;;;5123522;27;19932;-58
2023/09/05 01:31:18;;;;;;;;;;;22.50;55.40;;;;;;5093181;28;20036;-59
2023/09/05 01:33:45;;;;;;;;;;;22.50;55.40;;;;;;5109990;28;19936;-58
2023/09/05 01:36:12;;;;;;;;;;;22.50;55.40;;;;;;5102525;28;19973;-58
2023/09/05 01:38:39;;;;;;;;;;;22.40;55.30;;;;;;5095200;28;19931;-60
2023/09/05 01:41:05;;;;;;;;;;;22.40;55.30;;;;;;5110956;28;19928;-60
2023/09/05 01:43:33;;;;;;;;;;;22.40;55.30;;;;;;5093762;28;19946;-61
2023/09/05 01:46:00;;;;;;;;;;;22.50;55.40;;;;;;5093502;28;19966;-62
2023/09/05 01:48:27;;;;;;;;;;;22.40;55.30;;;;;;5101662;28;19924;-60
2023/09/05 01:50:54;;;;;;;;;;;22.40;55.30;;;;;;5102014;28;19928;-60
2023/09/05 01:53:20;;;;;;;;;;;22.40;55.30;;;;;;5106267;28;19949;-60
2023/09/05 01:55:47;;;;;;;;;;;22.50;55.40;;;;;;5105152;28;19924;-58
2023/09/05 01:58:14;;;;;;;;;;;22.40;55.30;;;;;;5097630;28;19923;-58
2023/09/05 02:00:42;;;;;;;;;;;22.40;55.30;;;;;;5096693;28;19931;-59
2023/09/05 02:03:09;;;;;;;;;;;22.50;55.40;;;;;;5103300;28;19927;-59
2023/09/05 02:05:36;;;;;;;;;;;22.50;55.40;;;;;;5110999;28;19928;-58
2023/09/05 02:08:03;;;;;;;;;;;22.40;55.30;;;;;;5090061;28;19924;-59
2023/09/05 02:10:31;;;;;;;;;;;22.50;55.40;;;;;;5093783;28;19928;-58
2023/09/05 02:12:57;;;;;;;;;;;22.50;55.40;;;;;;5094116;28;20031;-58
2023/09/05 02:15:24;;;;;;;;;;;22.40;55.30;;;;;;5092520;28;19928;-59
2023/09/05 02:17:55;;;;;;;;;;;22.50;55.40;;;;;;5093707;28;19924;-63
2023/09/05 02:20:22;;;;;;;;;;;22.40;55.30;;;;;;5109654;28;19924;-58
2023/09/05 02:22:49;;;;;;;;;;;22.40;55.30;;;;;;5104022;28;19931;-58
2023/09/05 02:25:16;;;;;;;;;;;22.40;55.30;;;;;;5109371;28;19985;-59
2023/09/05 02:27:42;;;;;;;;;;;22.40;55.30;;;;;;5092220;28;19928;-61
2023/09/05 02:30:10;;;;;;;;;;;22.40;55.30;;;;;;5086682;28;20361;-61
2023/09/05 02:32:36;;;;;;;;;;;22.50;55.40;;;;;;5091376;28;19935;-58
2023/09/05 02:35:05;;;;;;;;;;;22.40;55.40;;;;;;5091267;28;19932;-61
2023/09/05 02:37:32;;;;;;;;;;;22.50;55.40;;;;;;5091605;28;19924;-58
2023/09/05 02:39:59;;;;;;;;;;;22.50;55.40;;;;;;5108270;28;19989;-60
2023/09/05 02:42:26;;;;;;;;;;;22.40;55.30;;;;;;5096051;28;19934;-59
2023/09/05 02:44:53;;;;;;;;;;;22.40;55.30;;;;;;5103544;28;19969;-62
2023/09/05 02:47:20;;;;;;;;;;;22.50;55.40;;;;;;5112402;27;19928;-58
2023/09/05 02:49:47;;;;;;;;;;;22.40;55.30;;;;;;5103402;28;19924;-60
2023/09/05 02:52:15;;;;;;;;;;;22.50;55.40;;;;;;5105388;28;19924;-59
2023/09/05 02:54:42;;;;;;;;;;;22.50;55.40;;;;;;5082626;28;19931;-58
2023/09/05 02:57:09;;;;;;;;;;;22.40;55.30;;;;;;5087507;28;19928;-61
2023/09/05 02:59:35;;;;;;;;;;;22.40;55.30;;;;;;5090644;28;19969;-58
2023/09/05 03:02:02;;;;;;;;;;;22.40;55.30;;;;;;5093252;28;19924;-57
2023/09/05 03:04:32;;;;;;;;;;;22.50;55.40;;;;;;5098729;28;19932;-61
2023/09/05 03:07:00;;;;;;;;;;;22.40;55.30;;;;;;5093066;28;19973;-61
2023/09/05 03:09:28;;;;;;;;;;;22.50;55.40;;;;;;5102752;28;19931;-59
2023/09/05 03:11:55;;;;;;;;;;;22.40;55.30;;;;;;5103383;28;19924;-60
2023/09/05 03:14:21;;;;;;;;;;;22.40;55.40;;;;;;5107758;28;19924;-59
2023/09/05 03:16:48;;;;;;;;;;;22.50;55.40;;;;;;5089925;28;19931;-59
2023/09/05 03:19:15;;;;;;;;;;;22.50;55.40;;;;;;5090695;28;19924;-58
2023/09/05 03:21:42;;;;;;;;;;;22.50;55.40;;;;;;5090621;28;19958;-59
2023/09/05 03:24:08;;;;;;;;;;;22.50;55.40;;;;;;5126847;27;19934;-60
2023/09/05 03:26:37;;;;;;;;;;;22.40;55.30;;;;;;5112476;28;19924;-62
2023/09/05 03:29:03;;;;;;;;;;;22.50;55.40;;;;;;5126915;27;19928;-60
2023/09/05 03:31:30;;;;;;;;;;;22.50;55.40;;;;;;5122911;27;19931;-58
2023/09/05 03:33:57;;;;;;;;;;;22.50;55.40;;;;;;5101084;28;19985;-60
2023/09/05 03:36:25;;;;;;;;;;;22.50;55.40;;;;;;5099366;28;19924;-60
2023/09/05 03:38:52;;;;;;;;;;;22.50;55.40;;;;;;5090839;28;19930;-59
2023/09/05 03:41:19;;;;;;;;;;;22.50;55.40;;;;;;5089926;28;19928;-60
2023/09/05 03:43:47;;;;;;;;;;;22.50;55.40;;;;;;5090446;28;19993;-61
2023/09/05 03:46:14;;;;;;;;;;;22.50;55.40;;;;;;5089946;28;19924;-61
2023/09/05 03:48:40;;;;;;;;;;;22.50;55.40;;;;;;5089553;28;19946;-59
2023/09/05 03:51:07;;;;;;;;;;;22.50;55.40;;;;;;5092260;28;19928;-59
2023/09/05 03:53:34;;;;;;;;;;;22.40;55.30;;;;;;5089910;28;19924;-58
2023/09/05 03:56:01;;;;;;;;;;;22.50;55.40;;;;;;5124165;27;19931;-61
2023/09/05 03:58:27;;;;;;;;;;;22.50;55.40;;;;;;5090081;28;19928;-60
2023/09/05 04:00:57;;;;;;;;;;;22.40;55.30;;;;;;5090897;28;19931;-60
2023/09/05 04:03:24;;;;;;;;;;;22.50;55.40;;;;;;5104116;28;19930;-61
2023/09/05 04:05:50;;;;;;;;;;;22.50;55.40;;;;;;5100966;28;19945;-58
2023/09/05 04:08:17;;;;;;;;;;;22.40;55.30;;;;;;5083829;28;19924;-58
2023/09/05 04:10:44;;;;;;;;;;;22.50;55.40;;;;;;5091824;28;20005;-61
2023/09/05 04:13:10;;;;;;;;;;;22.50;55.40;;;;;;5091582;28;19931;-58
2023/09/05 04:15:37;;;;;;;;;;;22.50;55.40;;;;;;5099292;28;19931;-59
2023/09/05 04:18:06;;;;;;;;;;;22.50;55.40;;;;;;5090271;28;19989;-60
2023/09/05 04:20:32;;;;;;;;;;;22.50;55.40;;;;;;5090557;28;19932;-58
2023/09/05 04:22:59;;;;;;;;;;;22.50;55.40;;;;;;5097646;28;19923;-58
2023/09/05 04:25:27;;;;;;;;;;;22.50;55.40;;;;;;5098567;28;19931;-63
2023/09/05 04:27:54;;;;;;;;;;;22.50;55.40;;;;;;5098648;28;19927;-58
2023/09/05 04:30:20;;;;;;;;;;;22.50;55.40;;;;;;5107065;28;19925;-59
2023/09/05 04:32:47;;;;;;;;;;;22.50;55.40;;;;;;5100718;28;19928;-58
2023/09/05 04:35:15;;;;;;;;;;;22.50;55.40;;;;;;5118767;28;20044;-60
2023/09/05 04:37:42;;;;;;;;;;;22.50;55.40;;;;;;5102963;28;19931;-63
2023/09/05 04:40:09;;;;;;;;;;;22.50;55.40;;;;;;5109898;28;19981;-62
2023/09/05 04:42:38;;;;;;;;;;;22.50;55.40;;;;;;5127933;28;19928;-59
2023/09/05 04:45:07;;;;;;;;;;;22.50;55.40;;;;;;5110920;28;19924;-59
2023/09/05 04:47:34;;;;;;;;;;;22.50;55.40;;;;;;5098913;28;19931;-59
2023/09/05 04:50:01;;;;;;;;;;;22.50;55.40;;;;;;5100746;28;19930;-62
2023/09/05 04:52:29;;;;;;;;;;;22.50;55.40;;;;;;5099820;28;19923;-59
2023/09/05 04:54:56;;;;;;;;;;;22.50;55.40;;;;;;5091096;28;19932;-60
2023/09/05 04:57:23;;;;;;;;;;;22.40;55.30;;;;;;5100363;28;19969;-59
2023/09/05 04:59:53;;;;;;;;;;;22.50;55.40;;;;;;5106966;28;19924;-58
2023/09/05 05:02:20;;;;;;;;;;;22.50;55.40;;;;;;5083138;28;19924;-59
2023/09/05 05:04:47;;;;;;;;;;;22.50;55.40;;;;;;5089360;28;20017;-58
2023/09/05 05:07:14;;;;;;;;;;;22.50;55.40;;;;;;5099279;28;19946;-60
2023/09/05 05:09:42;;;;;;;;;;;22.50;55.40;;;;;;5081653;28;19974;-60
2023/09/05 05:12:09;;;;;;;;;;;22.50;55.40;;;;;;5091668;28;20549;-62
2023/09/05 05:14:36;;;;;;;;;;;22.50;55.40;;;;;;5102069;28;19952;-59
2023/09/05 05:17:02;;;;;;;;;;;22.50;55.40;;;;;;5114252;28;19928;-59
2023/09/05 05:19:29;;;;;;;;;;;22.50;55.40;;;;;;5109184;28;19968;-59
2023/09/05 05:21:56;;;;;;;;;;;22.50;55.40;;;;;;5106721;28;19939;-62
2023/09/05 05:24:23;;;;;;;;;;;22.50;55.40;;;;;;5106089;28;20132;-60
2023/09/05 05:26:52;;;;;;;;;;;22.50;55.40;;;;;;5106073;28;19950;-58
2023/09/05 05:29:18;;;;;;;;;;;22.50;55.40;;;;;;5097838;28;19965;-58
2023/09/05 05:31:46;;;;;;;;;;;22.50;56.00;;;;;;5094111;28;19928;-59
2023/09/05 05:34:13;;;;;;;;;;;22.50;55.40;;;;;;5104981;28;19924;-61
2023/09/05 05:36:40;;;;;;;;;;;22.50;55.40;;;;;;5098160;28;19924;-59
2023/09/05 05:39:06;;;;;;;;;;;22.50;55.40;;;;;;5095461;28;19928;-59
2023/09/05 05:41:33;;;;;;;;;;;22.50;55.40;;;;;;5104786;28;19928;-61
2023/09/05 05:44:01;;;;;;;;;;;22.50;55.40;;;;;;5101047;28;19977;-60
2023/09/05 05:46:30;;;;;;;;;;;22.50;55.40;;;;;;5094217;28;19928;-59
2023/09/05 05:48:58;;;;;;;;;;;22.50;55.40;;;;;;5093321;28;19928;-61
2023/09/05 05:51:25;;;;;;;;;;;22.50;55.40;;;;;;5099933;28;19924;-61
2023/09/05 05:53:52;;;;;;;;;;;22.50;55.40;;;;;;5092893;28;19977;-59
2023/09/05 05:56:19;;;;;;;;;;;22.50;55.40;;;;;;5101753;28;19989;-59
2023/09/05 05:58:48;;;;;;;;;;;22.50;55.40;;;;;;5095303;28;19953;-59
2023/09/05 06:01:18;;;;;;;;;;;22.50;56.00;;;;;;5096240;28;19931;-59
2023/09/05 06:03:44;;;;;;;;;;;22.50;55.40;;;;;;5103800;28;20012;-59
2023/09/05 06:06:11;;;;;;;;;;;22.50;55.40;;;;;;5096658;28;19932;-60
2023/09/05 06:08:38;;;;;;;;;;;22.50;55.40;;;;;;5093142;28;19952;-59
2023/09/05 06:11:05;;;;;;;;;;;22.50;55.40;;;;;;5099008;28;19924;-59
2023/09/05 06:13:31;;;;;;;;;;;22.50;55.40;;;;;;5094388;28;19931;-58
2023/09/05 06:15:58;;;;;;;;;;;22.50;55.40;;;;;;5102152;28;19938;-61
2023/09/05 06:18:26;;;;;;;;;;;22.50;55.40;;;;;;5103924;28;19923;-59
2023/09/05 06:20:53;;;;;;;;;;;22.50;55.40;;;;;;5104817;28;19928;-58
2023/09/05 06:23:20;;;;;;;;;;;22.50;55.40;;;;;;5103450;28;19951;-59
2023/09/05 06:25:46;;;;;;;;;;;22.50;55.40;;;;;;5109008;28;19931;-58
2023/09/05 06:28:14;;;;;;;;;;;22.50;55.40;;;;;;5102104;27;19927;-62
2023/09/05 06:30:40;;;;;;;;;;;22.50;55.40;;;;;;5118190;27;20020;-58
2023/09/05 06:33:07;;;;;;;;;;;22.50;55.40;;;;;;5091686;28;19969;-60
2023/09/05 06:35:37;;;;;;;;;;;22.50;55.40;;;;;;5113672;27;19977;-58
2023/09/05 06:38:05;;;;;;;;;;;22.50;55.40;;;;;;5110384;27;19931;-62
2023/09/05 06:40:32;;;;;;;;;;;22.50;55.40;;;;;;5085927;28;19925;-59
2023/09/05 06:42:59;;;;;;;;;;;22.50;55.40;;;;;;5108138;28;19977;-58
2023/09/05 06:45:26;;;;;;;;;;;22.50;55.40;;;;;;5091638;28;19946;-61
2023/09/05 06:47:53;;;;;;;;;;;22.50;55.30;;;;;;5091384;28;19928;-58
2023/09/05 06:50:18;;;;;;;;;;;22.50;55.40;;;;;;5091328;28;19924;-61
2023/09/05 06:52:48;;;;;;;;;;;22.50;55.40;;;;;;5108740;28;19996;-59
2023/09/05 06:55:14;;;;;;;;;;;22.50;55.40;;;;;;5087387;28;19968;-59
2023/09/05 06:57:41;;;;;;;;;;;22.50;55.40;;;;;;5079725;28;19970;-58
2023/09/05 07:00:10;;;;;;;;;;;22.50;55.40;;;;;;5097710;28;19924;-60
2023/09/05 07:02:37;;;;;;;;;;;22.50;55.40;;;;;;5090155;28;19931;-60
2023/09/05 07:05:04;;;;;;;;;;;22.60;55.40;;;;;;5103016;28;19933;-60
2023/09/05 07:07:30;;;;;;;;;;;22.50;55.40;;;;;;5092242;28;19969;-60
2023/09/05 07:09:59;;;;;;;;;;;22.50;55.40;;;;;;5109080;27;19924;-61
2023/09/05 07:12:26;;;;;;;;;;;22.60;55.50;;;;;;5099606;28;19931;-59
2023/09/05 07:14:53;;;;;;;;;;;22.60;55.40;;;;;;5089672;28;19924;-59
2023/09/05 07:17:19;;;;;;;;;;;22.50;55.40;;;;;;5090110;28;20027;-59
2023/09/05 07:19:46;;;;;;;;;;;22.60;55.50;;;;;;5091046;28;19924;-60
2023/09/05 07:22:13;;;;;;;;;;;22.50;55.40;;;;;;5090958;28;19924;-59
2023/09/05 07:24:40;;;;;;;;;;;22.50;55.40;;;;;;5098477;28;19924;-58
2023/09/05 07:27:09;;;;;;;;;;;22.60;55.40;;;;;;5103090;28;19924;-59
2023/09/05 07:29:36;;;;;;;;;;;22.60;55.40;;;;;;5101097;28;19928;-58
2023/09/05 07:32:02;;;;;;;;;;;22.50;55.40;;;;;;5092197;28;19927;-61
2023/09/05 07:34:29;;;;;;;;;;;22.60;55.50;;;;;;5096100;28;19924;-59
2023/09/05 07:36:56;;;;;;;;;;;22.50;55.40;;;;;;5112788;28;19931;-58
2023/09/05 07:39:24;;;;;;;;;;;22.50;55.40;;;;;;5098846;28;19935;-58
2023/09/05 07:41:51;;;;;;;;;;;22.60;55.50;;;;;;5092463;28;19927;-58
2023/09/05 07:44:19;;;;;;;;;;;22.60;55.40;;;;;;5103312;28;19981;-59
2023/09/05 07:46:46;;;;;;;;;;;22.60;55.40;;;;;;5120213;27;19963;-59
2023/09/05 07:49:13;;;;;;;;;;;22.50;55.40;;;;;;5095336;28;19924;-58
2023/09/05 07:51:40;;;;;;;;;;;22.60;55.40;;;;;;5098332;28;19924;-58
2023/09/05 07:54:10;;;;;;;;;;;22.60;55.50;;;;;;5108918;28;19923;-62
2023/09/05 07:56:37;;;;;;;;;;;22.50;55.40;;;;;;5091986;28;19924;-58
2023/09/05 07:59:05;;;;;;;;;;;22.60;55.50;;;;;;5100054;28;19924;-62
2023/09/05 08:01:33;;;;;;;;;;;22.50;55.40;;;;;;5082096;28;19928;-58
2023/09/05 08:04:00;;;;;;;;;;;22.60;55.50;;;;;;5098846;28;19924;-58
2023/09/05 08:06:28;;;;;;;;;;;22.50;55.40;;;;;;5097700;28;19928;-61
2023/09/05 08:08:55;;;;;;;;;;;22.60;55.40;;;;;;5093003;28;19978;-60
2023/09/05 08:11:22;;;;;;;;;;;22.50;55.40;;;;;;5103288;28;19957;-58
2023/09/05 08:13:49;;;;;;;;;;;22.60;55.50;;;;;;5119978;27;19920;-59
2023/09/05 08:16:15;;;;;;;;;;;22.50;55.40;;;;;;5099853;28;19951;-58
2023/09/05 08:18:44;;;;;;;;;;;22.50;55.40;;;;;;5124521;27;19928;-58
2023/09/05 08:21:10;;;;;;;;;;;22.60;55.50;;;;;;5098777;28;20185;-61
2023/09/05 08:23:37;;;;;;;;;;;22.60;55.50;;;;;;5091608;28;19924;-59
2023/09/05 08:26:05;;;;;;;;;;;22.50;55.40;;;;;;5099969;28;19990;-59
2023/09/05 08:28:33;;;;;;;;;;;22.60;55.50;;;;;;5091417;28;19932;-59
2023/09/05 08:31:01;;;;;;;;;;;22.50;55.40;;;;;;5115943;27;19928;-61
2023/09/05 08:33:28;;;;;;;;;;;22.60;55.50;;;;;;5091459;28;19928;-59
2023/09/05 08:35:57;;;;;;;;;;;22.60;55.50;;;;;;5087653;28;19996;-60
2023/09/05 08:38:23;;;;;;;;;;;22.60;55.50;;;;;;5102325;28;19928;-60
2023/09/05 08:40:50;;;;;;;;;;;22.60;55.50;;;;;;5102203;28;19924;-59
2023/09/05 08:43:17;;;;;;;;;;;22.60;55.50;;;;;;5107435;28;19928;-60
2023/09/05 08:45:44;;;;;;;;;;;22.60;55.50;;;;;;5097820;28;19951;-58
2023/09/05 08:48:11;;;;;;;;;;;22.60;55.50;;;;;;5098457;28;20990;-59
2023/09/05 08:50:38;;;;;;;;;;;22.60;55.50;;;;;;5103803;28;19931;-59
2023/09/05 08:53:10;;;;;;;;;;;22.60;55.50;;;;;;5090942;28;19950;-59
2023/09/05 08:55:37;;;;;;;;;;;22.60;55.50;;;;;;5104568;28;19920;-60
2023/09/05 08:58:04;;;;;;;;;;;22.60;55.50;;;;;;5118312;27;19924;-59
2023/09/05 09:00:32;;;;;;;;;;;22.60;55.50;;;;;;5094927;28;19924;-58
2023/09/05 09:02:59;;;;;;;;;;;22.60;55.50;;;;;;5094099;28;19925;-59
2023/09/05 09:05:26;;;;;;;;;;;22.60;55.50;;;;;;5110828;28;19988;-59
2023/09/05 09:07:54;;;;;;;;;;;22.60;55.50;;;;;;5103725;28;19927;-59
2023/09/05 09:10:23;;;;;;;;;;;22.60;55.50;;;;;;5092989;28;19967;-58
2023/09/05 09:12:51;;;;;;;;;;;22.60;55.50;;;;;;5094165;28;19924;-62
2023/09/05 09:15:18;;;;;;;;;;;22.60;55.40;;;;;;5094421;28;19931;-58
2023/09/05 09:17:46;;;;;;;;;;;22.60;55.50;;;;;;5102612;28;19928;-59
2023/09/05 09:20:13;;;;;;;;;;;22.60;55.50;;;;;;5094296;28;19935;-60
2023/09/05 09:22:40;;;;;;;;;;;22.60;55.50;;;;;;5102072;28;19924;-59
2023/09/05 09:25:12;;;;;;;;;;;22.60;55.50;;;;;;5102094;28;19924;-59
2023/09/05 09:27:42;;;;;;;;;;;22.60;55.50;;;;;;5093464;28;19920;-58
2023/09/05 09:30:09;;;;;;;;;;;22.60;55.50;;;;;;5103623;28;19931;-59
2023/09/05 09:32:36;;;;;;;;;;;22.60;55.50;;;;;;5103201;28;19924;-60
2023/09/05 09:35:05;;;;;;;;;;;22.60;55.50;;;;;;5103034;28;19928;-59
2023/09/05 09:37:32;;;;;;;;;;;22.60;55.50;;;;;;5103176;28;19939;-60
2023/09/05 09:39:59;;;;;;;;;;;22.60;55.50;;;;;;5093051;28;19928;-59
2023/09/05 09:42:26;;;;;;;;;;;22.60;55.50;;;;;;5092545;28;19931;-62
2023/09/05 09:44:54;;;;;;;;;;;22.60;55.50;;;;;;5096529;28;19935;-59
2023/09/05 09:47:21;;;;;;;;;;;22.60;55.50;;;;;;5093011;28;19924;-58
2023/09/05 09:49:49;;;;;;;;;;;22.60;55.50;;;;;;5104725;28;19928;-62
2023/09/05 09:52:16;;;;;;;;;;;22.60;55.50;;;;;;5101350;28;19924;-58
2023/09/05 09:54:44;;;;;;;;;;;22.60;55.50;;;;;;5092632;28;19985;-59
2023/09/05 09:57:12;;;;;;;;;;;22.60;55.50;;;;;;5092470;28;19920;-59
2023/09/05 09:59:43;;;;;;;;;;;22.60;55.70;;;;;;5093175;28;19924;-58
2023/09/05 10:02:12;;;;;;;;;;;22.60;55.50;;;;;;5096204;28;19924;-61
2023/09/05 10:04:39;;;;;;;;;;;22.60;55.50;;;;;;5101524;28;19936;-62
2023/09/05 10:07:06;;;;;;;;;;;22.60;55.50;;;;;;5097324;28;19939;-63
2023/09/05 10:09:34;;;;;;;;;;;22.60;55.50;;;;;;5092645;28;20023;-61
2023/09/05 10:12:01;;;;;;;;;;;22.60;55.50;;;;;;5093066;28;19984;-58
2023/09/05 10:14:28;;;;;;;;;;;22.60;55.50;;;;;;5098392;28;20231;-58
2023/09/05 10:16:55;;;;;;;;;;;22.60;55.50;;;;;;5122562;27;19935;-60
2023/09/05 10:19:23;;;;;;;;;;;22.60;55.50;;;;;;5109556;28;20014;-58
2023/09/05 10:21:50;;;;;;;;;;;22.60;55.50;;;;;;5090831;28;19924;-58
2023/09/05 10:24:17;;;;;;;;;;;22.60;55.50;;;;;;5093577;28;19928;-58
2023/09/05 10:26:44;;;;;;;;;;;22.60;55.50;;;;;;5101132;28;19923;-58
2023/09/05 10:29:29;;;;;;;;;;;22.60;55.50;;;;;;5110705;27;19928;-59
2023/09/05 10:31:56;;;;;;;;;;;22.60;55.50;;;;;;5090321;28;19928;-60
2023/09/05 10:34:26;;;;;;;;;;;22.60;55.50;;;;;;5101443;28;19931;-59
2023/09/05 10:36:52;;;;;;;;;;;22.60;55.50;;;;;;5092889;28;19974;-59
2023/09/05 10:39:24;;;;;;;;;;;22.60;55.50;;;;;;5104469;28;19930;-60
2023/09/05 10:41:51;;;;;;;;;;;22.60;55.50;;;;;;5104798;28;19924;-59
2023/09/05 10:44:17;;;;;;;;;;;22.60;55.50;;;;;;5083891;28;19938;-59
2023/09/05 10:46:44;;;;;;;;;;;22.60;55.50;;;;;;5100875;28;19932;-60
2023/09/05 10:49:12;;;;;;;;;;;22.60;55.50;;;;;;5092669;28;20807;-61
2023/09/05 10:51:54;;;;;;;;;;;22.60;55.60;;;;;;5091803;28;19931;-58
2023/09/05 10:54:36;;;;;;;;;;;22.60;55.50;;;;;;5090444;28;19928;-58
2023/09/05 10:57:04;;;;;;;;;;;22.60;55.50;;;;;;5101233;28;19998;-62
2023/09/05 10:59:31;;;;;;;;;;;22.60;55.60;;;;;;5103922;28;19924;-61
2023/09/05 11:02:01;;;;;;;;;;;22.60;55.60;;;;;;5091409;28;19959;-58
2023/09/05 11:04:29;;;;;;;;;;;22.60;55.60;;;;;;5092639;28;20023;-58
2023/09/05 11:07:00;;;;;;;;;;;22.60;55.60;;;;;;5108866;28;19924;-61
2023/09/05 11:09:27;;;;;;;;;;;22.60;55.60;;;;;;5098821;28;19936;-61
2023/09/05 11:11:54;;;;;;;;;;;22.60;55.60;;;;;;5093181;28;19928;-59
2023/09/05 11:14:32;;;;;;;;;;;22.60;55.60;;;;;;5092628;28;19924;-58
2023/09/05 11:16:59;;;;;;;;;;;22.60;55.60;;;;;;5104728;28;19927;-59
2023/09/05 11:19:45;;;;;;;;;;;22.60;55.60;;;;;;5100410;28;19932;-58
2023/09/05 11:22:15;;;;;;;;;;;22.70;55.70;;;;;;5127247;27;19938;-58
2023/09/05 11:24:46;;;;;;;;;;;22.70;55.70;;;;;;5103906;28;19966;-59
2023/09/05 11:27:13;;;;;;;;;;;22.70;55.70;;;;;;5111706;28;19924;-60
2023/09/05 11:29:42;;;;;;;;;;;22.70;55.70;;;;;;5098256;28;19923;-59
2023/09/05 11:32:12;;;;;;;;;;;22.70;55.70;;;;;;5108104;28;20126;-60
2023/09/05 11:34:40;;;;;;;;;;;22.60;55.60;;;;;;5095226;28;19924;-60
2023/09/05 11:37:07;;;;;;;;;;;22.60;55.60;;;;;;5091141;28;19924;-62
2023/09/05 11:39:34;;;;;;;;;;;22.70;55.70;;;;;;5091213;28;19947;-58
2023/09/05 11:42:01;;;;;;;;;;;22.70;55.70;;;;;;5100219;28;19923;-58
2023/09/05 11:44:31;;;;;;;;;;;22.60;55.60;;;;;;5104849;28;19924;-60
2023/09/05 11:46:59;;;;;;;;;;;22.70;55.70;;;;;;5095227;28;19928;-58
2023/09/05 11:49:26;;;;;;;;;;;22.60;55.60;;;;;;5100091;28;20164;-58
2023/09/05 11:51:53;;;;;;;;;;;22.60;55.60;;;;;;5108471;28;19924;-57
2023/09/05 11:54:19;;;;;;;;;;;22.60;55.60;;;;;;5112579;28;19923;-59
2023/09/05 11:56:47;;;;;;;;;;;22.70;55.70;;;;;;5128782;27;19924;-58
2023/09/05 11:59:16;;;;;;;;;;;22.60;55.60;;;;;;5115553;27;20297;-58
2023/09/05 12:01:43;;;;;;;;;;;22.70;55.70;;;;;;5090012;28;19923;-59
2023/09/05 12:04:11;;;;;;;;;;;22.70;55.70;;;;;;5102805;28;19963;-58
2023/09/05 12:06:38;;;;;;;;;;;22.60;55.70;;;;;;5098037;28;19932;-58
2023/09/05 12:09:05;;;;;;;;;;;22.70;55.70;;;;;;5092299;28;19928;-59
2023/09/05 12:11:32;;;;;;;;;;;22.70;55.70;;;;;;5090184;28;19932;-60
2023/09/05 12:13:58;;;;;;;;;;;22.70;55.70;;;;;;5099706;28;19950;-61
2023/09/05 12:16:25;;;;;;;;;;;22.60;55.60;;;;;;5095509;28;19923;-58
2023/09/05 12:18:57;;;;;;;;;;;22.70;55.80;;;;;;5102693;28;19924;-60
2023/09/05 12:21:28;;;;;;;;;;;22.70;55.70;;;;;;5115275;27;19924;-60
2023/09/05 12:23:55;;;;;;;;;;;22.70;55.70;;;;;;5091477;28;19928;-59
2023/09/05 12:26:30;;;;;;;;;;;22.60;55.60;;;;;;5103303;28;19923;-59
2023/09/05 12:28:58;;;;;;;;;;;22.70;55.80;;;;;;5100883;28;19928;-59
2023/09/05 12:31:26;;;;;;;;;;;22.70;55.80;;;;;;5090733;28;19928;-57
2023/09/05 12:33:55;;;;;;;;;;;22.70;55.80;;;;;;5097880;28;19924;-58
2023/09/05 12:36:22;;;;;;;;;;;22.70;55.80;;;;;;5115097;28;19930;-58
2023/09/05 12:38:50;;;;;;;;;;;22.70;55.80;;;;;;5090848;28;19924;-58
2023/09/05 12:41:17;;;;;;;;;;;22.70;55.70;;;;;;5093212;28;19958;-58
2023/09/05 12:43:43;;;;;;;;;;;22.70;55.70;;;;;;5090733;28;19924;-57
2023/09/05 12:46:10;;;;;;;;;;;22.70;55.80;;;;;;5091836;28;19924;-59
2023/09/05 12:48:37;;;;;;;;;;;22.70;55.80;;;;;;5100559;28;19932;-58
2023/09/05 12:51:05;;;;;;;;;;;22.70;55.80;;;;;;5096768;28;19947;-60
2023/09/05 12:53:31;;;;;;;;;;;22.70;55.80;;;;;;5092551;28;19924;-57
2023/09/05 12:56:00;;;;;;;;;;;22.70;55.80;;;;;;5097205;28;19932;-59
2023/09/05 12:58:29;;;;;;;;;;;22.70;55.80;;;;;;5098265;28;19932;-58
2023/09/05 13:00:56;;;;;;;;;;;22.70;55.80;;;;;;5104100;28;19946;-61
2023/09/05 13:03:25;;;;;;;;;;;22.70;55.80;;;;;;5094667;28;19930;-59
2023/09/05 13:05:52;;;;;;;;;;;22.70;55.80;;;;;;5100032;28;19966;-60
2023/09/05 13:08:19;;;;;;;;;;;22.70;55.80;;;;;;5089677;28;19925;-59
2023/09/05 13:10:46;;;;;;;;;;;22.70;55.80;;;;;;5089955;28;19924;-58
2023/09/05 13:13:15;;;;;;;;;;;22.70;55.80;;;;;;5097563;28;19955;-60
2023/09/05 13:15:43;;;;;;;;;;;22.70;55.80;;;;;;5090753;28;19928;-58
2023/09/05 13:18:10;;;;;;;;;;;22.70;55.80;;;;;;5089044;28;19924;-62
2023/09/05 13:20:36;;;;;;;;;;;22.70;55.80;;;;;;5089649;28;19924;-59
2023/09/05 13:23:03;;;;;;;;;;;22.70;55.80;;;;;;5108989;28;20006;-59
2023/09/05 13:25:32;;;;;;;;;;;22.70;55.80;;;;;;5097456;28;20124;-57
2023/09/05 13:28:01;;;;;;;;;;;22.70;55.80;;;;;;5108889;28;19963;-59
2023/09/05 13:30:29;;;;;;;;;;;22.70;55.80;;;;;;5118093;28;19978;-59
2023/09/05 13:32:56;;;;;;;;;;;22.70;55.80;;;;;;5115076;28;19935;-60
2023/09/05 13:35:22;;;;;;;;;;;22.70;55.80;;;;;;5098441;28;19928;-61
2023/09/05 13:37:49;;;;;;;;;;;22.70;55.80;;;;;;5098018;28;19942;-58
2023/09/05 13:40:16;;;;;;;;;;;22.70;55.80;;;;;;5102719;28;19928;-58
2023/09/05 13:42:43;;;;;;;;;;;22.70;55.80;;;;;;5087536;28;19924;-59
2023/09/05 13:45:10;;;;;;;;;;;22.70;55.80;;;;;;5127963;27;19924;-58
2023/09/05 13:47:39;;;;;;;;;;;22.70;55.90;;;;;;5122303;27;19931;-58
2023/09/05 13:50:09;;;;;;;;;;;22.70;55.80;;;;;;5129677;27;19923;-59
2023/09/05 13:52:35;;;;;;;;;;;22.70;55.90;;;;;;5112902;28;19923;-58
2023/09/05 13:55:02;;;;;;;;;;;22.70;55.80;;;;;;5106435;28;19935;-58
2023/09/05 13:57:29;;;;;;;;;;;22.70;55.90;;;;;;5105162;28;19924;-59
2023/09/05 13:59:56;;;;;;;;;;;22.70;55.80;;;;;;5113683;28;19935;-60
2023/09/05 14:02:22;;;;;;;;;;;22.70;55.80;;;;;;5101328;28;19924;-58
2023/09/05 14:04:52;;;;;;;;;;;22.70;55.80;;;;;;5093386;28;19924;-59
2023/09/05 14:07:18;;;;;;;;;;;22.70;55.90;;;;;;5127184;27;19935;-58
2023/09/05 14:09:45;;;;;;;;;;;22.70;55.90;;;;;;5110515;28;19985;-58
2023/09/05 14:12:17;;;;;;;;;;;22.70;55.90;;;;;;5094822;28;19932;-58
2023/09/05 14:14:44;;;;;;;;;;;22.70;55.80;;;;;;5102226;28;19928;-58
2023/09/05 14:17:11;;;;;;;;;;;22.70;55.90;;;;;;5114564;27;19932;-60